sensor_id;sensor_type;location;lat;lon;timestamp;P1;durP1;ratioP1;P2;durP2;ratioP2
42096;SDS011;27754;45.414;11.084;2023-10-08T00:01:17;68.00;;;46.35;;
42096;SDS011;27754;45.414;11.084;2023-10-08T00:03:46;101.38;;;48.58;;
42096;SDS011;27754;45.414;11.084;2023-10-08T00:06:18;70.82;;;46.65;;
42096;SDS011;27754;45.414;11.084;2023-10-08T00:08:47;72.78;;;46.38;;
42096;SDS011;27754;45.414;11.084;2023-10-08T00:11:14;65.72;;;44.45;;
42096;SDS011;27754;45.414;11.084;2023-10-08T00:13:44;68.35;;;45.03;;
42096;SDS011;27754;45.414;11.084;2023-10-08T00:16:12;68.00;;;44.33;;
42096;SDS011;27754;45.414;11.084;2023-10-08T00:18:45;65.38;;;44.80;;
42096;SDS011;27754;45.414;11.084;2023-10-08T00:21:15;64.53;;;44.05;;
42096;SDS011;27754;45.414;11.084;2023-10-08T00:23:43;68.63;;;45.38;;
42096;SDS011;27754;45.414;11.084;2023-10-08T00:26:21;64.03;;;42.17;;
42096;SDS011;27754;45.414;11.084;2023-10-08T00:28:58;57.22;;;40.85;;
42096;SDS011;27754;45.414;11.084;2023-10-08T00:31:48;60.67;;;41.45;;
42096;SDS011;27754;45.414;11.084;2023-10-08T00:34:18;62.53;;;40.88;;
42096;SDS011;27754;45.414;11.084;2023-10-08T00:36:47;62.90;;;41.65;;
42096;SDS011;27754;45.414;11.084;2023-10-08T00:39:15;61.80;;;41.60;;
42096;SDS011;27754;45.414;11.084;2023-10-08T00:42:03;60.08;;;41.05;;
42096;SDS011;27754;45.414;11.084;2023-10-08T00:44:36;64.68;;;42.65;;
42096;SDS011;27754;45.414;11.084;2023-10-08T00:47:24;63.80;;;42.05;;
42096;SDS011;27754;45.414;11.084;2023-10-08T00:49:53;61.70;;;42.15;;
42096;SDS011;27754;45.414;11.084;2023-10-08T00:52:29;63.60;;;41.67;;
42096;SDS011;27754;45.414;11.084;2023-10-08T00:55:03;62.08;;;42.40;;
42096;SDS011;27754;45.414;11.084;2023-10-08T00:57:30;61.08;;;41.17;;
42096;SDS011;27754;45.414;11.084;2023-10-08T01:00:01;61.53;;;41.25;;
42096;SDS011;27754;45.414;11.084;2023-10-08T01:02:32;61.47;;;42.13;;
42096;SDS011;27754;45.414;11.084;2023-10-08T01:05:17;55.25;;;39.70;;
42096;SDS011;27754;45.414;11.084;2023-10-08T01:07:50;59.65;;;41.05;;
42096;SDS011;27754;45.414;11.084;2023-10-08T01:10:18;60.42;;;42.40;;
42096;SDS011;27754;45.414;11.084;2023-10-08T01:12:51;54.80;;;37.83;;
42096;SDS011;27754;45.414;11.084;2023-10-08T01:15:21;56.20;;;39.22;;
42096;SDS011;27754;45.414;11.084;2023-10-08T01:17:55;53.78;;;37.65;;
42096;SDS011;27754;45.414;11.084;2023-10-08T01:20:31;57.80;;;38.95;;
42096;SDS011;27754;45.414;11.084;2023-10-08T01:23:07;58.97;;;38.88;;
42096;SDS011;27754;45.414;11.084;2023-10-08T01:25:40;60.95;;;39.63;;
42096;SDS011;27754;45.414;11.084;2023-10-08T01:28:09;63.55;;;40.45;;
42096;SDS011;27754;45.414;11.084;2023-10-08T01:30:58;60.90;;;41.15;;
42096;SDS011;27754;45.414;11.084;2023-10-08T01:33:27;59.03;;;38.28;;
42096;SDS011;27754;45.414;11.084;2023-10-08T01:35:56;55.45;;;37.58;;
42096;SDS011;27754;45.414;11.084;2023-10-08T01:38:30;63.00;;;42.40;;
42096;SDS011;27754;45.414;11.084;2023-10-08T01:40:59;62.72;;;41.25;;
42096;SDS011;27754;45.414;11.084;2023-10-08T01:43:36;62.95;;;41.58;;
42096;SDS011;27754;45.414;11.084;2023-10-08T01:46:05;56.95;;;39.55;;
42096;SDS011;27754;45.414;11.084;2023-10-08T01:48:38;63.72;;;40.33;;
42096;SDS011;27754;45.414;11.084;2023-10-08T01:51:05;62.10;;;40.97;;
42096;SDS011;27754;45.414;11.084;2023-10-08T01:53:35;54.95;;;37.00;;
42096;SDS011;27754;45.414;11.084;2023-10-08T01:56:03;55.85;;;37.30;;
42096;SDS011;27754;45.414;11.084;2023-10-08T01:58:30;58.13;;;39.45;;
42096;SDS011;27754;45.414;11.084;2023-10-08T02:01:00;57.35;;;37.33;;
42096;SDS011;27754;45.414;11.084;2023-10-08T02:03:27;59.55;;;38.90;;
42096;SDS011;27754;45.414;11.084;2023-10-08T02:05:54;56.80;;;38.13;;
42096;SDS011;27754;45.414;11.084;2023-10-08T02:08:25;62.45;;;39.13;;
42096;SDS011;27754;45.414;11.084;2023-10-08T02:10:53;57.35;;;40.20;;
42096;SDS011;27754;45.414;11.084;2023-10-08T02:13:20;64.25;;;42.47;;
42096;SDS011;27754;45.414;11.084;2023-10-08T02:15:50;69.05;;;45.33;;
42096;SDS011;27754;45.414;11.084;2023-10-08T02:18:20;67.82;;;44.65;;
42096;SDS011;27754;45.414;11.084;2023-10-08T02:20:52;64.22;;;41.45;;
42096;SDS011;27754;45.414;11.084;2023-10-08T02:23:19;63.97;;;41.90;;
42096;SDS011;27754;45.414;11.084;2023-10-08T02:25:47;65.10;;;40.60;;
42096;SDS011;27754;45.414;11.084;2023-10-08T02:28:14;63.22;;;41.38;;
42096;SDS011;27754;45.414;11.084;2023-10-08T02:30:43;60.80;;;40.10;;
42096;SDS011;27754;45.414;11.084;2023-10-08T02:33:10;65.35;;;43.28;;
42096;SDS011;27754;45.414;11.084;2023-10-08T02:35:44;65.68;;;41.50;;
42096;SDS011;27754;45.414;11.084;2023-10-08T02:38:13;62.42;;;40.72;;
42096;SDS011;27754;45.414;11.084;2023-10-08T02:40:44;61.65;;;41.50;;
42096;SDS011;27754;45.414;11.084;2023-10-08T02:43:15;67.55;;;40.85;;
42096;SDS011;27754;45.414;11.084;2023-10-08T02:45:43;60.40;;;40.05;;
42096;SDS011;27754;45.414;11.084;2023-10-08T02:48:17;57.65;;;38.30;;
42096;SDS011;27754;45.414;11.084;2023-10-08T02:50:45;58.63;;;38.40;;
42096;SDS011;27754;45.414;11.084;2023-10-08T02:53:12;54.30;;;36.70;;
42096;SDS011;27754;45.414;11.084;2023-10-08T02:55:44;56.70;;;37.97;;
42096;SDS011;27754;45.414;11.084;2023-10-08T02:58:14;54.60;;;37.08;;
42096;SDS011;27754;45.414;11.084;2023-10-08T03:00:42;54.58;;;36.08;;
42096;SDS011;27754;45.414;11.084;2023-10-08T03:03:16;56.85;;;37.63;;
42096;SDS011;27754;45.414;11.084;2023-10-08T03:05:46;57.13;;;36.17;;
42096;SDS011;27754;45.414;11.084;2023-10-08T03:08:16;58.33;;;38.10;;
42096;SDS011;27754;45.414;11.084;2023-10-08T03:10:48;56.08;;;38.28;;
42096;SDS011;27754;45.414;11.084;2023-10-08T03:13:22;59.30;;;38.50;;
42096;SDS011;27754;45.414;11.084;2023-10-08T03:15:50;57.28;;;37.97;;
42096;SDS011;27754;45.414;11.084;2023-10-08T03:18:16;56.17;;;37.75;;
42096;SDS011;27754;45.414;11.084;2023-10-08T03:20:47;58.78;;;38.17;;
42096;SDS011;27754;45.414;11.084;2023-10-08T03:23:16;59.67;;;39.05;;
42096;SDS011;27754;45.414;11.084;2023-10-08T03:25:52;60.05;;;36.97;;
42096;SDS011;27754;45.414;11.084;2023-10-08T03:28:40;65.15;;;39.03;;
42096;SDS011;27754;45.414;11.084;2023-10-08T03:31:08;52.78;;;36.05;;
42096;SDS011;27754;45.414;11.084;2023-10-08T03:33:45;66.75;;;38.38;;
42096;SDS011;27754;45.414;11.084;2023-10-08T03:36:18;59.50;;;38.80;;
42096;SDS011;27754;45.414;11.084;2023-10-08T03:38:48;58.00;;;37.42;;
42096;SDS011;27754;45.414;11.084;2023-10-08T03:41:22;58.83;;;38.20;;
42096;SDS011;27754;45.414;11.084;2023-10-08T03:43:55;55.08;;;37.30;;
42096;SDS011;27754;45.414;11.084;2023-10-08T03:46:32;63.00;;;40.28;;
42096;SDS011;27754;45.414;11.084;2023-10-08T03:49:06;64.07;;;39.83;;
42096;SDS011;27754;45.414;11.084;2023-10-08T03:51:44;64.22;;;39.42;;
42096;SDS011;27754;45.414;11.084;2023-10-08T03:54:11;68.07;;;43.05;;
42096;SDS011;27754;45.414;11.084;2023-10-08T03:56:42;64.80;;;40.65;;
42096;SDS011;27754;45.414;11.084;2023-10-08T03:59:12;60.95;;;40.50;;
42096;SDS011;27754;45.414;11.084;2023-10-08T04:01:44;65.38;;;40.17;;
42096;SDS011;27754;45.414;11.084;2023-10-08T04:04:11;65.72;;;40.67;;
42096;SDS011;27754;45.414;11.084;2023-10-08T04:06:41;60.55;;;40.10;;
42096;SDS011;27754;45.414;11.084;2023-10-08T04:09:16;64.28;;;41.28;;
42096;SDS011;27754;45.414;11.084;2023-10-08T04:11:46;68.18;;;42.50;;
42096;SDS011;27754;45.414;11.084;2023-10-08T04:14:13;67.25;;;41.83;;
42096;SDS011;27754;45.414;11.084;2023-10-08T04:16:42;62.55;;;39.67;;
42096;SDS011;27754;45.414;11.084;2023-10-08T04:19:10;62.80;;;37.28;;
42096;SDS011;27754;45.414;11.084;2023-10-08T04:21:38;59.50;;;37.20;;
42096;SDS011;27754;45.414;11.084;2023-10-08T04:24:10;58.13;;;38.03;;
42096;SDS011;27754;45.414;11.084;2023-10-08T04:26:41;55.40;;;36.05;;
42096;SDS011;27754;45.414;11.084;2023-10-08T04:29:09;74.15;;;39.65;;
42096;SDS011;27754;45.414;11.084;2023-10-08T04:31:36;60.58;;;37.42;;
42096;SDS011;27754;45.414;11.084;2023-10-08T04:34:10;55.85;;;35.67;;
42096;SDS011;27754;45.414;11.084;2023-10-08T04:36:43;57.72;;;36.08;;
42096;SDS011;27754;45.414;11.084;2023-10-08T04:39:23;57.88;;;36.53;;
42096;SDS011;27754;45.414;11.084;2023-10-08T04:41:59;60.45;;;37.53;;
42096;SDS011;27754;45.414;11.084;2023-10-08T04:47:01;53.30;;;34.25;;
42096;SDS011;27754;45.414;11.084;2023-10-08T04:49:31;60.75;;;37.08;;
42096;SDS011;27754;45.414;11.084;2023-10-08T04:52:04;58.97;;;37.65;;
42096;SDS011;27754;45.414;11.084;2023-10-08T04:54:41;62.05;;;37.60;;
42096;SDS011;27754;45.414;11.084;2023-10-08T04:57:18;59.17;;;37.60;;
42096;SDS011;27754;45.414;11.084;2023-10-08T04:59:49;60.55;;;37.25;;
42096;SDS011;27754;45.414;11.084;2023-10-08T05:02:24;59.10;;;37.08;;
42096;SDS011;27754;45.414;11.084;2023-10-08T05:04:51;61.30;;;37.25;;
42096;SDS011;27754;45.414;11.084;2023-10-08T05:07:21;64.18;;;39.53;;
42096;SDS011;27754;45.414;11.084;2023-10-08T05:10:26;62.08;;;40.17;;
42096;SDS011;27754;45.414;11.084;2023-10-08T05:12:54;65.18;;;40.08;;
42096;SDS011;27754;45.414;11.084;2023-10-08T05:15:30;67.05;;;39.17;;
42096;SDS011;27754;45.414;11.084;2023-10-08T05:18:24;60.33;;;36.72;;
42096;SDS011;27754;45.414;11.084;2023-10-08T05:21:11;54.97;;;34.83;;
42096;SDS011;27754;45.414;11.084;2023-10-08T05:24:07;54.23;;;34.13;;
42096;SDS011;27754;45.414;11.084;2023-10-08T05:26:40;53.40;;;34.33;;
42096;SDS011;27754;45.414;11.084;2023-10-08T05:29:09;74.15;;;35.63;;
42096;SDS011;27754;45.414;11.084;2023-10-08T05:31:54;54.05;;;34.17;;
42096;SDS011;27754;45.414;11.084;2023-10-08T05:34:40;52.55;;;33.65;;
42096;SDS011;27754;45.414;11.084;2023-10-08T05:37:22;55.05;;;33.83;;
42096;SDS011;27754;45.414;11.084;2023-10-08T05:40:04;58.80;;;36.08;;
42096;SDS011;27754;45.414;11.084;2023-10-08T05:42:47;56.22;;;34.50;;
42096;SDS011;27754;45.414;11.084;2023-10-08T05:45:16;55.05;;;34.88;;
42096;SDS011;27754;45.414;11.084;2023-10-08T05:48:00;55.17;;;33.38;;
42096;SDS011;27754;45.414;11.084;2023-10-08T05:50:40;54.25;;;35.35;;
42096;SDS011;27754;45.414;11.084;2023-10-08T05:53:21;58.67;;;36.40;;
42096;SDS011;27754;45.414;11.084;2023-10-08T05:56:25;54.38;;;34.72;;
42096;SDS011;27754;45.414;11.084;2023-10-08T05:58:55;60.15;;;34.38;;
42096;SDS011;27754;45.414;11.084;2023-10-08T06:01:44;55.13;;;34.22;;
42096;SDS011;27754;45.414;11.084;2023-10-08T06:04:12;52.00;;;33.90;;
42096;SDS011;27754;45.414;11.084;2023-10-08T06:09:39;51.75;;;32.05;;
42096;SDS011;27754;45.414;11.084;2023-10-08T06:12:06;54.70;;;32.75;;
42096;SDS011;27754;45.414;11.084;2023-10-08T06:14:37;55.35;;;33.80;;
42096;SDS011;27754;45.414;11.084;2023-10-08T06:17:33;52.22;;;32.65;;
42096;SDS011;27754;45.414;11.084;2023-10-08T06:20:11;56.03;;;34.30;;
42096;SDS011;27754;45.414;11.084;2023-10-08T06:22:43;61.40;;;35.20;;
42096;SDS011;27754;45.414;11.084;2023-10-08T06:25:10;67.28;;;35.92;;
42096;SDS011;27754;45.414;11.084;2023-10-08T06:27:44;57.50;;;34.60;;
42096;SDS011;27754;45.414;11.084;2023-10-08T06:30:12;63.58;;;39.17;;
42096;SDS011;27754;45.414;11.084;2023-10-08T06:32:43;71.20;;;41.72;;
42096;SDS011;27754;45.414;11.084;2023-10-08T06:35:11;67.07;;;42.67;;
42096;SDS011;27754;45.414;11.084;2023-10-08T06:37:44;64.15;;;42.03;;
42096;SDS011;27754;45.414;11.084;2023-10-08T06:40:11;62.05;;;39.58;;
42096;SDS011;27754;45.414;11.084;2023-10-08T06:42:59;65.82;;;39.55;;
42096;SDS011;27754;45.414;11.084;2023-10-08T06:45:30;63.10;;;38.95;;
42096;SDS011;27754;45.414;11.084;2023-10-08T06:47:59;63.20;;;38.92;;
42096;SDS011;27754;45.414;11.084;2023-10-08T06:50:28;56.10;;;36.08;;
42096;SDS011;27754;45.414;11.084;2023-10-08T06:52:56;53.78;;;33.85;;
42096;SDS011;27754;45.414;11.084;2023-10-08T06:55:23;56.85;;;34.47;;
42096;SDS011;27754;45.414;11.084;2023-10-08T06:57:53;60.65;;;40.50;;
42096;SDS011;27754;45.414;11.084;2023-10-08T07:00:20;64.03;;;41.00;;
42096;SDS011;27754;45.414;11.084;2023-10-08T07:03:05;64.25;;;40.00;;
42096;SDS011;27754;45.414;11.084;2023-10-08T07:05:34;58.40;;;38.80;;
42096;SDS011;27754;45.414;11.084;2023-10-08T07:08:08;64.20;;;40.22;;
42096;SDS011;27754;45.414;11.084;2023-10-08T07:10:35;59.35;;;39.53;;
42096;SDS011;27754;45.414;11.084;2023-10-08T07:13:02;59.38;;;39.50;;
42096;SDS011;27754;45.414;11.084;2023-10-08T07:15:30;59.33;;;38.15;;
42096;SDS011;27754;45.414;11.084;2023-10-08T07:17:57;61.08;;;39.53;;
42096;SDS011;27754;45.414;11.084;2023-10-08T07:20:35;57.67;;;38.95;;
42096;SDS011;27754;45.414;11.084;2023-10-08T07:23:05;62.25;;;40.25;;
42096;SDS011;27754;45.414;11.084;2023-10-08T07:26:02;60.38;;;39.05;;
42096;SDS011;27754;45.414;11.084;2023-10-08T07:28:42;61.33;;;40.33;;
42096;SDS011;27754;45.414;11.084;2023-10-08T07:31:13;53.10;;;38.58;;
42096;SDS011;27754;45.414;11.084;2023-10-08T07:33:46;59.83;;;39.37;;
42096;SDS011;27754;45.414;11.084;2023-10-08T07:36:14;53.17;;;37.17;;
42096;SDS011;27754;45.414;11.084;2023-10-08T07:38:44;56.22;;;39.55;;
42096;SDS011;27754;45.414;11.084;2023-10-08T07:41:11;53.60;;;38.90;;
42096;SDS011;27754;45.414;11.084;2023-10-08T07:43:40;58.88;;;39.13;;
42096;SDS011;27754;45.414;11.084;2023-10-08T07:46:12;50.60;;;38.88;;
42096;SDS011;27754;45.414;11.084;2023-10-08T07:48:41;51.72;;;38.47;;
42096;SDS011;27754;45.414;11.084;2023-10-08T07:51:09;59.33;;;40.70;;
42096;SDS011;27754;45.414;11.084;2023-10-08T07:53:36;58.95;;;40.58;;
42096;SDS011;27754;45.414;11.084;2023-10-08T07:56:08;56.80;;;39.78;;
42096;SDS011;27754;45.414;11.084;2023-10-08T07:58:37;52.45;;;39.42;;
42096;SDS011;27754;45.414;11.084;2023-10-08T08:01:07;55.35;;;40.05;;
42096;SDS011;27754;45.414;11.084;2023-10-08T08:03:36;59.92;;;42.53;;
42096;SDS011;27754;45.414;11.084;2023-10-08T08:06:07;60.88;;;44.13;;
42096;SDS011;27754;45.414;11.084;2023-10-08T08:08:36;60.15;;;42.40;;
42096;SDS011;27754;45.414;11.084;2023-10-08T08:11:07;64.30;;;44.38;;
42096;SDS011;27754;45.414;11.084;2023-10-08T08:13:44;62.85;;;42.60;;
42096;SDS011;27754;45.414;11.084;2023-10-08T08:16:12;61.40;;;43.42;;
42096;SDS011;27754;45.414;11.084;2023-10-08T08:21:10;57.90;;;41.08;;
42096;SDS011;27754;45.414;11.084;2023-10-08T08:23:42;60.20;;;39.17;;
42096;SDS011;27754;45.414;11.084;2023-10-08T08:26:16;61.67;;;41.80;;
42096;SDS011;27754;45.414;11.084;2023-10-08T08:28:55;60.80;;;42.50;;
42096;SDS011;27754;45.414;11.084;2023-10-08T08:31:24;61.55;;;41.25;;
42096;SDS011;27754;45.414;11.084;2023-10-08T08:33:58;63.25;;;41.05;;
42096;SDS011;27754;45.414;11.084;2023-10-08T08:36:30;62.35;;;44.13;;
42096;SDS011;27754;45.414;11.084;2023-10-08T08:38:58;60.95;;;42.08;;
42096;SDS011;27754;45.414;11.084;2023-10-08T08:41:25;59.05;;;38.58;;
42096;SDS011;27754;45.414;11.084;2023-10-08T08:43:53;56.72;;;40.10;;
42096;SDS011;27754;45.414;11.084;2023-10-08T08:46:30;59.05;;;39.33;;
42096;SDS011;27754;45.414;11.084;2023-10-08T08:49:03;59.67;;;39.90;;
42096;SDS011;27754;45.414;11.084;2023-10-08T08:51:39;56.60;;;40.47;;
42096;SDS011;27754;45.414;11.084;2023-10-08T08:54:07;57.53;;;40.25;;
42096;SDS011;27754;45.414;11.084;2023-10-08T08:56:35;56.92;;;40.42;;
42096;SDS011;27754;45.414;11.084;2023-10-08T08:59:05;58.45;;;39.20;;
42096;SDS011;27754;45.414;11.084;2023-10-08T09:01:32;54.60;;;40.78;;
42096;SDS011;27754;45.414;11.084;2023-10-08T09:04:00;54.53;;;38.75;;
42096;SDS011;27754;45.414;11.084;2023-10-08T09:06:34;51.88;;;36.92;;
42096;SDS011;27754;45.414;11.084;2023-10-08T09:09:04;48.58;;;33.90;;
42096;SDS011;27754;45.414;11.084;2023-10-08T09:11:52;54.75;;;37.25;;
42096;SDS011;27754;45.414;11.084;2023-10-08T09:14:19;51.05;;;35.85;;
42096;SDS011;27754;45.414;11.084;2023-10-08T09:16:52;53.95;;;36.38;;
42096;SDS011;27754;45.414;11.084;2023-10-08T09:19:26;54.17;;;37.78;;
42096;SDS011;27754;45.414;11.084;2023-10-08T09:24:31;54.58;;;37.15;;
42096;SDS011;27754;45.414;11.084;2023-10-08T09:27:05;52.05;;;36.67;;
42096;SDS011;27754;45.414;11.084;2023-10-08T09:29:44;46.95;;;31.58;;
42096;SDS011;27754;45.414;11.084;2023-10-08T09:32:14;42.90;;;30.73;;
42096;SDS011;27754;45.414;11.084;2023-10-08T09:34:50;39.97;;;27.90;;
42096;SDS011;27754;45.414;11.084;2023-10-08T09:37:18;39.97;;;28.63;;
42096;SDS011;27754;45.414;11.084;2023-10-08T09:39:48;41.08;;;28.48;;
42096;SDS011;27754;45.414;11.084;2023-10-08T09:42:17;41.10;;;28.55;;
42096;SDS011;27754;45.414;11.084;2023-10-08T09:44:48;43.53;;;28.92;;
42096;SDS011;27754;45.414;11.084;2023-10-08T09:47:19;45.50;;;29.17;;
42096;SDS011;27754;45.414;11.084;2023-10-08T09:50:01;38.08;;;25.42;;
42096;SDS011;27754;45.414;11.084;2023-10-08T09:52:47;36.70;;;26.35;;
42096;SDS011;27754;45.414;11.084;2023-10-08T09:55:30;38.60;;;26.33;;
42096;SDS011;27754;45.414;11.084;2023-10-08T09:57:57;37.38;;;25.75;;
42096;SDS011;27754;45.414;11.084;2023-10-08T10:00:25;39.92;;;25.40;;
42096;SDS011;27754;45.414;11.084;2023-10-08T10:02:58;39.13;;;24.55;;
42096;SDS011;27754;45.414;11.084;2023-10-08T10:05:33;45.33;;;26.70;;
42096;SDS011;27754;45.414;11.084;2023-10-08T10:08:02;35.50;;;24.50;;
42096;SDS011;27754;45.414;11.084;2023-10-08T10:10:37;36.53;;;23.55;;
42096;SDS011;27754;45.414;11.084;2023-10-08T10:13:05;32.33;;;22.38;;
42096;SDS011;27754;45.414;11.084;2023-10-08T10:15:36;35.53;;;23.38;;
42096;SDS011;27754;45.414;11.084;2023-10-08T10:18:08;34.72;;;22.08;;
42096;SDS011;27754;45.414;11.084;2023-10-08T10:23:40;32.70;;;20.05;;
42096;SDS011;27754;45.414;11.084;2023-10-08T10:26:24;26.83;;;16.63;;
42096;SDS011;27754;45.414;11.084;2023-10-08T10:31:49;23.42;;;15.52;;
42096;SDS011;27754;45.414;11.084;2023-10-08T10:34:21;23.67;;;16.45;;
42096;SDS011;27754;45.414;11.084;2023-10-08T10:36:55;24.92;;;15.52;;
42096;SDS011;27754;45.414;11.084;2023-10-08T10:39:35;26.52;;;16.17;;
42096;SDS011;27754;45.414;11.084;2023-10-08T10:42:06;23.15;;;15.30;;
42096;SDS011;27754;45.414;11.084;2023-10-08T10:44:47;26.05;;;15.27;;
42096;SDS011;27754;45.414;11.084;2023-10-08T10:47:20;23.85;;;15.18;;
42096;SDS011;27754;45.414;11.084;2023-10-08T10:49:47;23.45;;;14.52;;
42096;SDS011;27754;45.414;11.084;2023-10-08T10:57:48;21.00;;;13.00;;
42096;SDS011;27754;45.414;11.084;2023-10-08T11:00:23;21.13;;;13.30;;
42096;SDS011;27754;45.414;11.084;2023-10-08T11:03:01;23.00;;;12.15;;
42096;SDS011;27754;45.414;11.084;2023-10-08T11:05:30;20.40;;;12.77;;
42096;SDS011;27754;45.414;11.084;2023-10-08T11:08:04;21.20;;;11.82;;
42096;SDS011;27754;45.414;11.084;2023-10-08T11:10:35;17.35;;;9.35;;
42096;SDS011;27754;45.414;11.084;2023-10-08T11:13:05;19.27;;;9.82;;
42096;SDS011;27754;45.414;11.084;2023-10-08T11:15:44;15.95;;;9.88;;
42096;SDS011;27754;45.414;11.084;2023-10-08T11:18:16;14.60;;;9.63;;
42096;SDS011;27754;45.414;11.084;2023-10-08T11:20:46;17.02;;;9.30;;
42096;SDS011;27754;45.414;11.084;2023-10-08T11:26:04;18.13;;;9.57;;
42096;SDS011;27754;45.414;11.084;2023-10-08T11:28:36;23.20;;;9.95;;
42096;SDS011;27754;45.414;11.084;2023-10-08T11:31:13;14.98;;;8.85;;
42096;SDS011;27754;45.414;11.084;2023-10-08T11:33:42;19.90;;;9.70;;
42096;SDS011;27754;45.414;11.084;2023-10-08T11:36:23;18.92;;;10.65;;
42096;SDS011;27754;45.414;11.084;2023-10-08T11:39:08;16.75;;;9.05;;
42096;SDS011;27754;45.414;11.084;2023-10-08T11:41:38;13.82;;;8.25;;
42096;SDS011;27754;45.414;11.084;2023-10-08T11:44:16;15.57;;;8.45;;
42096;SDS011;27754;45.414;11.084;2023-10-08T11:46:48;17.05;;;8.80;;
42096;SDS011;27754;45.414;11.084;2023-10-08T11:49:18;16.70;;;8.82;;
42096;SDS011;27754;45.414;11.084;2023-10-08T11:51:46;15.38;;;8.82;;
42096;SDS011;27754;45.414;11.084;2023-10-08T11:54:13;15.77;;;8.73;;
42096;SDS011;27754;45.414;11.084;2023-10-08T11:56:41;15.38;;;8.77;;
42096;SDS011;27754;45.414;11.084;2023-10-08T11:59:09;18.20;;;8.30;;
42096;SDS011;27754;45.414;11.084;2023-10-08T12:01:36;14.38;;;8.05;;
42096;SDS011;27754;45.414;11.084;2023-10-08T12:04:04;15.10;;;7.63;;
42096;SDS011;27754;45.414;11.084;2023-10-08T12:06:40;14.55;;;5.65;;
42096;SDS011;27754;45.414;11.084;2023-10-08T12:09:13;12.98;;;4.75;;
42096;SDS011;27754;45.414;11.084;2023-10-08T12:11:41;8.55;;;4.25;;
42096;SDS011;27754;45.414;11.084;2023-10-08T12:14:09;8.57;;;4.07;;
42096;SDS011;27754;45.414;11.084;2023-10-08T12:16:38;10.93;;;4.30;;
42096;SDS011;27754;45.414;11.084;2023-10-08T12:19:06;11.48;;;4.32;;
42096;SDS011;27754;45.414;11.084;2023-10-08T12:21:43;11.85;;;5.25;;
42096;SDS011;27754;45.414;11.084;2023-10-08T12:24:14;10.77;;;4.20;;
42096;SDS011;27754;45.414;11.084;2023-10-08T12:26:44;11.15;;;4.32;;
42096;SDS011;27754;45.414;11.084;2023-10-08T12:29:16;10.35;;;4.50;;
42096;SDS011;27754;45.414;11.084;2023-10-08T12:31:45;12.27;;;4.70;;
42096;SDS011;27754;45.414;11.084;2023-10-08T12:34:14;11.13;;;5.13;;
42096;SDS011;27754;45.414;11.084;2023-10-08T12:36:43;12.15;;;4.72;;
42096;SDS011;27754;45.414;11.084;2023-10-08T12:39:12;14.32;;;5.05;;
42096;SDS011;27754;45.414;11.084;2023-10-08T12:41:43;10.30;;;4.63;;
42096;SDS011;27754;45.414;11.084;2023-10-08T12:44:11;12.43;;;5.07;;
42096;SDS011;27754;45.414;11.084;2023-10-08T12:46:39;10.80;;;4.68;;
42096;SDS011;27754;45.414;11.084;2023-10-08T12:49:10;12.00;;;5.18;;
42096;SDS011;27754;45.414;11.084;2023-10-08T12:51:37;13.18;;;5.50;;
42096;SDS011;27754;45.414;11.084;2023-10-08T12:54:08;20.65;;;6.68;;
42096;SDS011;27754;45.414;11.084;2023-10-08T12:56:38;11.63;;;5.50;;
42096;SDS011;27754;45.414;11.084;2023-10-08T12:59:11;15.90;;;5.20;;
42096;SDS011;27754;45.414;11.084;2023-10-08T13:01:48;13.63;;;5.45;;
42096;SDS011;27754;45.414;11.084;2023-10-08T13:04:21;12.38;;;5.15;;
42096;SDS011;27754;45.414;11.084;2023-10-08T13:06:56;10.65;;;4.90;;
42096;SDS011;27754;45.414;11.084;2023-10-08T13:09:27;8.23;;;5.07;;
42096;SDS011;27754;45.414;11.084;2023-10-08T13:11:58;12.73;;;4.97;;
42096;SDS011;27754;45.414;11.084;2023-10-08T13:14:26;11.23;;;5.53;;
42096;SDS011;27754;45.414;11.084;2023-10-08T13:16:53;14.55;;;5.93;;
42096;SDS011;27754;45.414;11.084;2023-10-08T13:19:21;12.68;;;5.65;;
42096;SDS011;27754;45.414;11.084;2023-10-08T13:21:50;13.13;;;6.03;;
42096;SDS011;27754;45.414;11.084;2023-10-08T13:24:19;12.75;;;5.90;;
42096;SDS011;27754;45.414;11.084;2023-10-08T13:26:50;12.63;;;5.25;;
42096;SDS011;27754;45.414;11.084;2023-10-08T13:29:18;11.75;;;6.30;;
42096;SDS011;27754;45.414;11.084;2023-10-08T13:31:45;10.90;;;5.72;;
42096;SDS011;27754;45.414;11.084;2023-10-08T13:34:13;11.88;;;5.72;;
42096;SDS011;27754;45.414;11.084;2023-10-08T13:36:43;14.02;;;6.68;;
42096;SDS011;27754;45.414;11.084;2023-10-08T13:39:14;12.80;;;5.95;;
42096;SDS011;27754;45.414;11.084;2023-10-08T13:41:45;9.93;;;5.85;;
42096;SDS011;27754;45.414;11.084;2023-10-08T13:44:15;15.15;;;6.78;;
42096;SDS011;27754;45.414;11.084;2023-10-08T13:46:42;19.45;;;6.15;;
42096;SDS011;27754;45.414;11.084;2023-10-08T13:49:16;14.43;;;6.18;;
42096;SDS011;27754;45.414;11.084;2023-10-08T13:51:45;14.60;;;6.13;;
42096;SDS011;27754;45.414;11.084;2023-10-08T13:54:13;14.70;;;5.85;;
42096;SDS011;27754;45.414;11.084;2023-10-08T13:56:41;14.18;;;6.20;;
42096;SDS011;27754;45.414;11.084;2023-10-08T13:59:15;13.27;;;5.60;;
42096;SDS011;27754;45.414;11.084;2023-10-08T14:01:44;13.55;;;5.82;;
42096;SDS011;27754;45.414;11.084;2023-10-08T14:04:19;12.57;;;6.60;;
42096;SDS011;27754;45.414;11.084;2023-10-08T14:06:47;15.77;;;6.30;;
42096;SDS011;27754;45.414;11.084;2023-10-08T14:09:19;15.10;;;5.78;;
42096;SDS011;27754;45.414;11.084;2023-10-08T14:11:59;11.05;;;5.40;;
42096;SDS011;27754;45.414;11.084;2023-10-08T14:14:27;14.15;;;5.90;;
42096;SDS011;27754;45.414;11.084;2023-10-08T14:17:00;17.45;;;5.32;;
42096;SDS011;27754;45.414;11.084;2023-10-08T14:19:36;13.18;;;5.30;;
42096;SDS011;27754;45.414;11.084;2023-10-08T14:22:13;13.80;;;5.28;;
42096;SDS011;27754;45.414;11.084;2023-10-08T14:24:42;13.90;;;5.75;;
42096;SDS011;27754;45.414;11.084;2023-10-08T14:27:12;13.75;;;5.85;;
42096;SDS011;27754;45.414;11.084;2023-10-08T14:29:42;15.65;;;6.30;;
42096;SDS011;27754;45.414;11.084;2023-10-08T14:32:18;13.57;;;5.47;;
42096;SDS011;27754;45.414;11.084;2023-10-08T14:34:46;13.55;;;5.97;;
42096;SDS011;27754;45.414;11.084;2023-10-08T14:37:14;12.60;;;5.28;;
42096;SDS011;27754;45.414;11.084;2023-10-08T14:42:45;11.43;;;5.35;;
42096;SDS011;27754;45.414;11.084;2023-10-08T14:45:31;14.20;;;5.63;;
42096;SDS011;27754;45.414;11.084;2023-10-08T14:48:02;16.25;;;6.45;;
42096;SDS011;27754;45.414;11.084;2023-10-08T14:50:34;21.27;;;6.43;;
42096;SDS011;27754;45.414;11.084;2023-10-08T14:53:01;17.85;;;5.95;;
42096;SDS011;27754;45.414;11.084;2023-10-08T14:55:32;16.63;;;5.88;;
42096;SDS011;27754;45.414;11.084;2023-10-08T14:58:02;14.50;;;5.78;;
42096;SDS011;27754;45.414;11.084;2023-10-08T15:00:34;11.20;;;5.97;;
42096;SDS011;27754;45.414;11.084;2023-10-08T15:03:06;12.25;;;5.78;;
42096;SDS011;27754;45.414;11.084;2023-10-08T15:05:35;11.88;;;6.32;;
42096;SDS011;27754;45.414;11.084;2023-10-08T15:08:06;15.02;;;5.80;;
42096;SDS011;27754;45.414;11.084;2023-10-08T15:10:37;16.63;;;6.40;;